Time;durP1;ratioP1;P1;durP2;ratioP2;P2;SDS_P1;SDS_P2;PMS_P1;PMS_P2;Temp;Humidity;BMP_temperature;BMP_pressure;BME280_temperature;BME280_humidity;BME280_pressure;Samples;Min_cycle;Max_cycle;Signal;HPM_P1;HPM_P2
2022/04/27 00:00:33;;;;;;;44.57;34.83;;;7.90;99.90;;;;;;5110655;28;20691;-51
2022/04/27 00:03:02;;;;;;;46.93;35.37;;;7.90;99.90;;;;;;5110562;28;20246;-52
2022/04/27 00:05:31;;;;;;;39.50;33.20;;;7.90;99.90;;;;;;5111634;28;20230;-52
2022/04/27 00:08:00;;;;;;;45.77;35.83;;;7.90;99.90;;;;;;5111234;28;20210;-52
2022/04/27 00:10:29;;;;;;;47.70;36.27;;;7.80;99.90;;;;;;5093182;28;20261;-52
2022/04/27 00:12:57;;;;;;;45.87;35.53;;;7.80;99.90;;;;;;5091051;28;20628;-51
2022/04/27 00:15:27;;;;;;;47.23;37.33;;;7.70;99.90;;;;;;5091367;28;20227;-50
2022/04/27 00:17:56;;;;;;;46.00;36.50;;;7.70;99.90;;;;;;5091421;28;20619;-52
2022/04/27 00:20:24;;;;;;;48.43;37.07;;;7.80;99.90;;;;;;5091405;28;20257;-52
2022/04/27 00:22:52;;;;;;;49.37;37.93;;;7.70;99.90;;;;;;5090566;28;20215;-50
2022/04/27 00:25:21;;;;;;;49.67;38.63;;;7.80;99.90;;;;;;5091204;28;20227;-52
2022/04/27 00:27:51;;;;;;;48.40;37.80;;;7.80;99.90;;;;;;5091338;28;20614;-51
2022/04/27 00:30:19;;;;;;;47.00;37.50;;;7.80;99.90;;;;;;5091067;28;20204;-51
2022/04/27 00:32:47;;;;;;;48.27;38.13;;;7.70;99.90;;;;;;5090192;28;20344;-51
2022/04/27 00:35:15;;;;;;;48.93;38.30;;;7.70;99.90;;;;;;5090732;28;20780;-52
2022/04/27 00:37:43;;;;;;;50.67;38.33;;;7.70;99.90;;;;;;5108364;28;20271;-52
2022/04/27 00:40:12;;;;;;;43.23;35.77;;;7.70;99.90;;;;;;5111543;28;20255;-51
2022/04/27 00:42:45;;;;;;;51.97;37.70;;;7.70;99.90;;;;;;5110889;28;20602;-50
2022/04/27 00:45:14;;;;;;;50.23;37.70;;;7.70;99.90;;;;;;5111195;28;20231;-52
2022/04/27 00:47:43;;;;;;;46.93;36.70;;;7.70;99.90;;;;;;5110859;28;20210;-51
2022/04/27 00:50:11;;;;;;;48.63;36.33;;;7.70;99.90;;;;;;5111786;28;20268;-51
2022/04/27 00:52:39;;;;;;;45.17;35.17;;;7.70;99.90;;;;;;5110456;28;20699;-51
2022/04/27 00:55:09;;;;;;;45.07;35.27;;;7.70;99.90;;;;;;5112031;28;20231;-50
2022/04/27 00:57:39;;;;;;;48.37;34.83;;;7.70;99.90;;;;;;5115079;28;20204;-52
2022/04/27 01:00:08;;;;;;;47.57;34.30;;;7.70;99.90;;;;;;5114678;28;20218;-51
2022/04/27 01:02:39;;;;;;;43.87;34.03;;;7.70;99.90;;;;;;5113530;28;20214;-51
2022/04/27 01:05:09;;;;;;;49.37;34.97;;;7.70;99.90;;;;;;5113897;28;20230;-51
2022/04/27 01:07:39;;;;;;;45.83;35.23;;;7.70;99.90;;;;;;5114051;28;20728;-50
2022/04/27 01:10:08;;;;;;;48.73;36.93;;;7.70;99.90;;;;;;5113960;28;20200;-51
2022/04/27 01:12:37;;;;;;;47.43;36.50;;;7.70;99.90;;;;;;5114490;28;20842;-51
2022/04/27 01:15:07;;;;;;;47.77;35.33;;;7.60;99.90;;;;;;5114546;28;20231;-50
2022/04/27 01:17:35;;;;;;;44.73;34.27;;;7.60;99.90;;;;;;5114908;28;20222;-51
2022/04/27 01:20:06;;;;;;;48.30;35.70;;;7.60;99.90;;;;;;5114238;28;20226;-51
2022/04/27 01:22:35;;;;;;;47.03;35.70;;;7.60;99.90;;;;;;5114212;28;20211;-51
2022/04/27 01:25:04;;;;;;;50.27;36.10;;;7.50;99.90;;;;;;5114358;28;20295;-51
2022/04/27 01:27:32;;;;;;;47.73;37.27;;;7.40;99.90;;;;;;5114390;28;20214;-51
2022/04/27 01:30:00;;;;;;;52.43;39.10;;;7.30;99.90;;;;;;5114431;28;20257;-51
2022/04/27 01:32:28;;;;;;;53.63;39.20;;;7.30;99.90;;;;;;5113724;28;20632;-51
2022/04/27 01:34:56;;;;;;;52.43;38.90;;;7.20;99.90;;;;;;5114173;28;20222;-52
2022/04/27 01:40:12;;;;;;;53.40;39.83;;;7.20;99.90;;;;;;5114436;28;20214;-51
2022/04/27 01:42:40;;;;;;;50.37;38.33;;;7.20;99.90;;;;;;5113439;28;20214;-50
2022/04/27 01:45:09;;;;;;;47.97;37.27;;;7.20;99.90;;;;;;5113984;28;20212;-52
2022/04/27 01:47:37;;;;;;;50.57;38.83;;;7.20;99.90;;;;;;5113730;28;20246;-52
2022/04/27 01:50:06;;;;;;;47.73;33.90;;;7.20;99.90;;;;;;5113889;28;20207;-51
2022/04/27 01:55:21;;;;;;;43.57;33.07;;;7.20;99.90;;;;;;5113716;27;20219;-52
2022/04/27 01:57:49;;;;;;;45.00;33.67;;;7.30;99.90;;;;;;5113370;28;20207;-52
2022/04/27 02:00:18;;;;;;;42.83;32.50;;;7.30;99.90;;;;;;5113689;28;20223;-53
2022/04/27 02:02:46;;;;;;;42.77;33.20;;;7.30;99.90;;;;;;5112978;28;20206;-52
2022/04/27 02:05:14;;;;;;;44.17;33.67;;;7.30;99.90;;;;;;5112944;28;20287;-52
2022/04/27 02:07:43;;;;;;;43.10;32.83;;;7.30;99.90;;;;;;5108462;28;20216;-51
2022/04/27 02:10:11;;;;;;;46.50;32.40;;;7.30;99.90;;;;;;5108677;28;20200;-52
2022/04/27 02:12:40;;;;;;;45.10;31.07;;;7.30;99.90;;;;;;5113164;28;20207;-51
2022/04/27 02:15:09;;;;;;;43.70;30.43;;;7.30;99.90;;;;;;5112922;28;20230;-52
2022/04/27 02:17:38;;;;;;;43.47;31.47;;;7.40;99.90;;;;;;5113148;28;20206;-51
2022/04/27 02:20:08;;;;;;;40.87;31.13;;;7.40;99.90;;;;;;5113217;28;20227;-52
2022/04/27 02:22:36;;;;;;;40.07;29.93;;;7.40;99.90;;;;;;5112929;28;20204;-51
2022/04/27 02:25:05;;;;;;;40.67;30.80;;;7.40;99.90;;;;;;5112943;28;20625;-51
2022/04/27 02:27:33;;;;;;;47.00;31.97;;;7.40;99.90;;;;;;5113411;27;20248;-51
2022/04/27 02:30:03;;;;;;;38.93;30.53;;;7.40;99.90;;;;;;5112969;28;20206;-52
2022/04/27 02:32:32;;;;;;;41.70;32.80;;;7.40;99.90;;;;;;5112456;28;20675;-52
2022/04/27 02:35:00;;;;;;;50.27;33.10;;;7.40;99.90;;;;;;5112761;28;20661;-51
2022/04/27 02:37:29;;;;;;;45.90;33.23;;;7.40;99.90;;;;;;5112947;28;20203;-51
2022/04/27 02:39:57;;;;;;;43.77;32.37;;;7.40;99.90;;;;;;5113752;28;20227;-50
2022/04/27 02:42:26;;;;;;;44.47;32.27;;;7.40;99.90;;;;;;5112395;28;20602;-52
2022/04/27 02:44:54;;;;;;;40.07;29.53;;;7.40;99.90;;;;;;5112549;28;20714;-51
2022/04/27 02:47:23;;;;;;;42.03;31.13;;;7.40;99.90;;;;;;5112284;28;20240;-52
2022/04/27 02:52:37;;;;;;;40.07;30.27;;;7.50;99.90;;;;;;5111870;28;20210;-52
2022/04/27 02:55:06;;;;;;;39.27;28.63;;;7.50;99.90;;;;;;5112494;28;20723;-51
2022/04/27 02:57:34;;;;;;;39.80;29.90;;;7.50;99.90;;;;;;5112813;28;20280;-51
2022/04/27 03:00:02;;;;;;;39.03;30.40;;;7.60;99.90;;;;;;5112536;28;20299;-52
2022/04/27 03:02:32;;;;;;;35.00;29.30;;;7.60;99.90;;;;;;5112213;28;20272;-51
2022/04/27 03:05:01;;;;;;;43.00;27.90;;;7.60;99.90;;;;;;5111283;28;20226;-51
2022/04/27 03:07:29;;;;;;;38.77;28.77;;;7.60;99.90;;;;;;5112743;28;20282;-50
2022/04/27 03:09:57;;;;;;;37.40;28.27;;;7.60;99.90;;;;;;5112197;28;20226;-51
2022/04/27 03:12:25;;;;;;;37.23;29.10;;;7.60;99.90;;;;;;5112158;28;20255;-52
2022/04/27 03:14:53;;;;;;;35.83;27.67;;;7.70;99.90;;;;;;5111565;28;20227;-52
2022/04/27 03:17:21;;;;;;;41.47;29.57;;;7.70;99.90;;;;;;5112213;28;20259;-51
2022/04/27 03:19:57;;;;;;;34.90;26.50;;;7.70;99.90;;;;;;5112300;28;20636;-51
2022/04/27 03:22:25;;;;;;;38.47;26.50;;;7.60;99.90;;;;;;5111272;28;20207;-51
2022/04/27 03:24:53;;;;;;;34.20;26.83;;;7.70;99.90;;;;;;5115599;28;20232;-51
2022/04/27 03:27:21;;;;;;;34.60;25.80;;;7.60;99.90;;;;;;5114696;28;20203;-51
2022/04/27 03:29:49;;;;;;;31.43;23.70;;;7.70;99.90;;;;;;5114519;28;20263;-51
2022/04/27 03:32:17;;;;;;;34.43;23.77;;;7.70;99.90;;;;;;5114225;28;20213;-50
2022/04/27 03:34:46;;;;;;;31.67;24.77;;;7.70;99.90;;;;;;5112630;28;20272;-52
2022/04/27 03:37:16;;;;;;;27.37;22.90;;;7.60;99.90;;;;;;5117832;27;20722;-52
2022/04/27 03:39:44;;;;;;;29.47;22.77;;;7.60;99.90;;;;;;5133050;27;20260;-51
2022/04/27 03:42:12;;;;;;;30.23;23.70;;;7.60;99.90;;;;;;5132660;27;20265;-51
2022/04/27 03:44:40;;;;;;;36.23;24.40;;;7.60;99.90;;;;;;5128411;27;20221;-50
2022/04/27 03:47:08;;;;;;;33.50;24.73;;;7.50;99.90;;;;;;5112152;28;20256;-50
2022/04/27 03:49:36;;;;;;;31.07;23.50;;;7.50;99.90;;;;;;5111703;28;20242;-51
2022/04/27 03:52:05;;;;;;;30.87;23.73;;;7.40;99.90;;;;;;5111797;28;20215;-51
2022/04/27 03:54:35;;;;;;;30.60;23.53;;;7.40;99.90;;;;;;5111639;28;20210;-52
2022/04/27 03:57:04;;;;;;;30.90;23.47;;;7.40;99.90;;;;;;5112321;28;20262;-51
2022/04/27 03:59:32;;;;;;;31.57;23.87;;;7.30;99.90;;;;;;5111581;28;20733;-52
2022/04/27 04:02:00;;;;;;;28.77;22.97;;;7.30;99.90;;;;;;5111176;28;20227;-50
2022/04/27 04:04:29;;;;;;;31.33;23.23;;;7.30;99.90;;;;;;5110558;28;20204;-52
2022/04/27 04:06:58;;;;;;;33.67;23.20;;;7.20;99.90;;;;;;5114599;28;20215;-51
2022/04/27 04:09:26;;;;;;;33.63;24.47;;;7.20;99.90;;;;;;5121855;27;20214;-52
2022/04/27 04:11:56;;;;;;;30.07;22.63;;;7.20;99.90;;;;;;5110562;28;20199;-52
2022/04/27 04:14:24;;;;;;;31.30;23.37;;;7.20;99.90;;;;;;5111212;28;20687;-52
2022/04/27 04:16:52;;;;;;;29.90;22.63;;;7.20;99.90;;;;;;5111149;28;20210;-51
2022/04/27 04:19:20;;;;;;;30.33;23.37;;;7.20;99.90;;;;;;5111636;28;20203;-52
2022/04/27 04:21:48;;;;;;;31.00;22.20;;;7.20;99.90;;;;;;5110555;28;20303;-51
2022/04/27 04:24:17;;;;;;;28.77;22.00;;;7.10;99.90;;;;;;5111476;28;20624;-51
2022/04/27 04:29:32;;;;;;;26.77;21.63;;;7.20;99.90;;;;;;5111270;28;20203;-52
2022/04/27 04:32:00;;;;;;;28.93;21.57;;;7.20;99.90;;;;;;5113895;28;20217;-52
2022/04/27 04:34:28;;;;;;;29.53;21.50;;;7.30;99.90;;;;;;5115356;28;20290;-51
2022/04/27 04:36:56;;;;;;;25.50;20.67;;;7.30;99.90;;;;;;5114870;28;20222;-52
2022/04/27 04:39:24;;;;;;;30.13;23.03;;;7.40;99.90;;;;;;5115382;28;20264;-52
2022/04/27 04:41:52;;;;;;;25.73;19.87;;;7.70;99.90;;;;;;5114948;28;20275;-51
2022/04/27 04:44:20;;;;;;;24.83;18.87;;;8.10;99.90;;;;;;5114747;28;20618;-52
2022/04/27 04:46:50;;;;;;;25.33;18.87;;;8.50;99.90;;;;;;5115082;28;20204;-51
2022/04/27 04:49:18;;;;;;;25.57;18.27;;;8.80;99.90;;;;;;5115060;28;20205;-51
2022/04/27 04:51:46;;;;;;;76.87;44.87;;;9.20;99.90;;;;;;5114400;28;20203;-51
2022/04/27 04:54:14;;;;;;;20.90;17.40;;;9.40;99.90;;;;;;5114810;28;20207;-51
2022/04/27 04:56:42;;;;;;;21.33;17.37;;;9.70;99.90;;;;;;5114677;28;20596;-52
2022/04/27 04:59:10;;;;;;;19.23;16.63;;;9.90;99.90;;;;;;5115166;28;20207;-52
2022/04/27 05:01:39;;;;;;;21.10;16.70;;;10.10;99.90;;;;;;5114526;28;20273;-51
2022/04/27 05:04:09;;;;;;;18.40;15.53;;;10.30;99.90;;;;;;5113534;28;20239;-51
2022/04/27 05:06:37;;;;;;;21.17;16.13;;;10.60;99.90;;;;;;5114739;27;20231;-53
2022/04/27 05:09:05;;;;;;;23.07;17.83;;;10.80;99.90;;;;;;5108032;28;20204;-52
2022/04/27 05:11:33;;;;;;;50.57;37.03;;;11.00;99.90;;;;;;5099137;28;20245;-51
2022/04/27 05:14:01;;;;;;;16.93;14.87;;;11.20;99.90;;;;;;5113866;28;20207;-52
2022/04/27 05:16:31;;;;;;;27.70;20.97;;;11.50;99.90;;;;;;5114433;28;20227;-52
2022/04/27 05:18:59;;;;;;;31.77;23.37;;;11.60;99.90;;;;;;5114780;28;20307;-52
2022/04/27 05:21:28;;;;;;;17.27;15.00;;;11.80;99.90;;;;;;5114165;28;20227;-51
2022/04/27 05:23:57;;;;;;;17.60;15.30;;;12.00;99.90;;;;;;5114122;28;20204;-52
2022/04/27 05:26:25;;;;;;;17.40;14.00;;;12.20;99.90;;;;;;5113851;28;20232;-52
2022/04/27 05:34:24;;;;;;;16.23;13.80;;;11.90;99.90;;;;;;5114055;28;20199;-52
2022/04/27 05:36:54;;;;;;;17.10;14.13;;;11.70;99.90;;;;;;5116219;27;20208;-52
2022/04/27 05:39:22;;;;;;;16.07;13.37;;;11.50;99.90;;;;;;5135073;27;20240;-51
2022/04/27 05:41:51;;;;;;;17.90;13.67;;;11.30;99.90;;;;;;5132855;27;20227;-52
2022/04/27 05:44:22;;;;;;;17.43;13.63;;;11.20;99.90;;;;;;5134701;27;20202;-52
2022/04/27 05:46:50;;;;;;;18.43;13.70;;;11.30;99.90;;;;;;5114816;27;20215;-52
2022/04/27 05:49:18;;;;;;;15.27;13.07;;;11.20;99.90;;;;;;5113345;28;20200;-52
2022/04/27 05:51:47;;;;;;;18.73;13.63;;;11.00;99.90;;;;;;5113322;28;20656;-52
2022/04/27 05:54:17;;;;;;;15.63;13.93;;;11.00;99.90;;;;;;5113791;28;20254;-52
2022/04/27 05:56:46;;;;;;;17.80;12.47;;;10.90;99.90;;;;;;5114182;28;20219;-52
2022/04/27 05:59:14;;;;;;;17.73;12.83;;;10.90;99.90;;;;;;5113401;28;20260;-52
2022/04/27 06:01:42;;;;;;;15.00;12.30;;;11.00;99.90;;;;;;5113374;28;20222;-52
2022/04/27 06:04:10;;;;;;;14.77;12.17;;;11.00;99.90;;;;;;5095411;28;20204;-52
2022/04/27 06:06:38;;;;;;;18.20;12.70;;;10.90;99.90;;;;;;5104038;28;20649;-52
2022/04/27 06:09:06;;;;;;;18.07;12.23;;;11.00;99.90;;;;;;5113557;28;20253;-52
2022/04/27 06:11:36;;;;;;;16.53;12.07;;;11.40;99.90;;;;;;5113315;28;20203;-52
2022/04/27 06:14:04;;;;;;;14.27;11.37;;;11.80;99.90;;;;;;5112722;28;20212;-52
2022/04/27 06:16:34;;;;;;;14.70;11.40;;;12.50;99.90;;;;;;5113103;28;20295;-51
2022/04/27 06:19:04;;;;;;;14.13;11.27;;;13.00;99.90;;;;;;5113242;28;20211;-52
2022/04/27 06:21:32;;;;;;;13.67;10.77;;;13.50;99.90;;;;;;5112204;28;20223;-53
2022/04/27 06:24:04;;;;;;;12.65;10.68;;;14.10;99.90;;;;;;5112337;28;20303;-52
2022/04/27 06:26:33;;;;;;;11.63;10.38;;;14.40;99.90;;;;;;5113031;28;20704;-52
2022/04/27 06:29:02;;;;;;;12.98;10.32;;;14.70;99.90;;;;;;5112822;28;20688;-52
2022/04/27 06:31:31;;;;;;;12.98;10.07;;;14.90;99.90;;;;;;5113035;28;20572;-52
2022/04/27 06:33:59;;;;;;;12.85;10.13;;;15.10;99.90;;;;;;5112298;28;20226;-52
2022/04/27 06:36:28;;;;;;;12.00;9.80;;;15.20;99.90;;;;;;5112985;28;20227;-51
2022/04/27 06:38:56;;;;;;;11.38;10.05;;;15.30;99.90;;;;;;5101742;27;20665;-52
2022/04/27 06:41:24;;;;;;;12.02;9.57;;;15.20;99.90;;;;;;5092678;28;20254;-51
2022/04/27 06:43:52;;;;;;;10.70;9.45;;;15.30;99.90;;;;;;5091848;28;20205;-53
2022/04/27 06:46:22;;;;;;;12.77;9.48;;;15.20;99.90;;;;;;5107258;28;20215;-52
2022/04/27 06:48:50;;;;;;;11.15;9.90;;;15.40;99.90;;;;;;5111815;28;20200;-53
2022/04/27 06:51:27;;;;;;;13.63;9.60;;;15.50;99.90;;;;;;5112481;28;20211;-51
2022/04/27 06:53:55;;;;;;;10.77;9.30;;;15.40;99.90;;;;;;5110333;27;20239;-52
2022/04/27 06:56:24;;;;;;;13.90;9.68;;;15.70;99.90;;;;;;5112003;28;20266;-53
2022/04/27 06:58:52;;;;;;;11.00;9.90;;;15.50;99.90;;;;;;5112490;28;20212;-53
2022/04/27 07:01:22;;;;;;;12.23;10.18;;;15.60;99.90;;;;;;5112692;28;20639;-52
2022/04/27 07:03:55;;;;;;;12.52;10.13;;;15.80;99.90;;;;;;5111810;28;20228;-51
2022/04/27 07:06:23;;;;;;;14.35;9.82;;;15.70;99.90;;;;;;5105478;27;20234;-52
2022/04/27 07:08:56;;;;;;;10.90;9.65;;;15.50;99.90;;;;;;5112595;28;20226;-52
2022/04/27 07:11:24;;;;;;;11.02;9.52;;;15.70;99.90;;;;;;5112195;27;20694;-52
2022/04/27 07:13:54;;;;;;;14.70;9.93;;;15.80;99.90;;;;;;5111588;28;20259;-52
2022/04/27 07:16:23;;;;;;;12.73;10.25;;;15.90;99.90;;;;;;5110654;28;20231;-52
2022/04/27 07:18:53;;;;;;;12.00;10.38;;;16.10;99.90;;;;;;5111798;28;20218;-53
2022/04/27 07:21:21;;;;;;;11.07;9.85;;;16.10;99.90;;;;;;5100947;28;20203;-52
2022/04/27 07:23:50;;;;;;;13.30;10.23;;;16.20;99.90;;;;;;5111407;28;20280;-51
2022/04/27 07:26:18;;;;;;;13.52;10.85;;;16.40;99.90;;;;;;5112060;28;20321;-52
2022/04/27 07:28:46;;;;;;;12.48;10.10;;;16.00;99.90;;;;;;5112119;28;20212;-52
2022/04/27 07:31:14;;;;;;;11.15;9.93;;;16.20;99.90;;;;;;5112072;28;20203;-52
2022/04/27 07:33:44;;;;;;;12.13;10.90;;;16.00;99.90;;;;;;5111106;28;20254;-52
2022/04/27 07:36:12;;;;;;;12.23;10.85;;;16.10;99.90;;;;;;5111802;28;20925;-52
2022/04/27 07:38:40;;;;;;;14.95;10.68;;;16.40;99.90;;;;;;5112051;28;20204;-52
2022/04/27 07:41:09;;;;;;;13.60;10.38;;;16.50;99.90;;;;;;5111350;28;20606;-52
2022/04/27 07:43:37;;;;;;;11.10;9.90;;;16.60;99.90;;;;;;5111106;28;20215;-53
2022/04/27 07:46:08;;;;;;;11.77;10.65;;;16.60;99.90;;;;;;5111429;28;20219;-53
2022/04/27 07:48:36;;;;;;;12.88;11.15;;;16.70;99.90;;;;;;5111744;28;20257;-52
2022/04/27 07:51:06;;;;;;;14.45;10.90;;;16.70;99.90;;;;;;5111294;28;20628;-52
2022/04/27 07:53:35;;;;;;;12.02;10.70;;;16.80;99.90;;;;;;5110999;28;20203;-51
2022/04/27 07:56:04;;;;;;;12.18;10.75;;;16.90;99.90;;;;;;5111327;28;20279;-52
2022/04/27 07:58:32;;;;;;;12.95;10.90;;;16.90;99.90;;;;;;5111845;28;20203;-52
2022/04/27 08:01:01;;;;;;;15.45;11.35;;;16.90;99.90;;;;;;5110710;28;20199;-52
2022/04/27 08:03:29;;;;;;;13.38;11.25;;;16.60;99.90;;;;;;5111154;28;20356;-52
2022/04/27 08:06:00;;;;;;;13.10;11.63;;;16.30;99.90;;;;;;5110078;28;20228;-52
2022/04/27 08:08:29;;;;;;;17.60;11.70;;;16.10;99.90;;;;;;5111236;28;20188;-52
2022/04/27 08:10:58;;;;;;;12.85;11.43;;;16.00;99.90;;;;;;5111491;28;20203;-51
2022/04/27 08:13:26;;;;;;;14.57;11.68;;;15.90;99.90;;;;;;5110353;28;20603;-52
2022/04/27 08:15:54;;;;;;;13.48;11.35;;;15.80;99.90;;;;;;5110869;28;20231;-52
2022/04/27 08:18:23;;;;;;;16.23;11.05;;;15.90;99.90;;;;;;5110995;28;20242;-52
2022/04/27 08:23:40;;;;;;;15.25;11.10;;;15.70;99.90;;;;;;5100687;28;20205;-52
2022/04/27 08:26:10;;;;;;;13.32;11.82;;;15.80;99.90;;;;;;5090520;28;20263;-52
2022/04/27 08:28:39;;;;;;;16.08;11.93;;;15.90;99.90;;;;;;5091168;28;20590;-52
2022/04/27 08:31:09;;;;;;;14.40;11.68;;;16.00;99.90;;;;;;5090316;28;20200;-52
2022/04/27 08:33:37;;;;;;;14.25;11.30;;;16.00;99.90;;;;;;5100085;28;20561;-53
2022/04/27 08:36:07;;;;;;;14.10;11.82;;;15.80;99.90;;;;;;5110758;28;20594;-53
2022/04/27 08:38:56;;;;;;;15.23;12.15;;;15.90;99.90;;;;;;5111152;28;20649;-53
2022/04/27 08:41:26;;;;;;;13.02;11.65;;;16.00;99.90;;;;;;5111352;28;20268;-52
2022/04/27 08:43:54;;;;;;;19.30;12.50;;;15.90;99.90;;;;;;5111050;28;20223;-52
2022/04/27 08:46:24;;;;;;;16.83;12.35;;;16.10;99.90;;;;;;5111280;28;20645;-53
2022/04/27 08:48:52;;;;;;;17.27;12.68;;;16.10;99.90;;;;;;5110869;28;20215;-52
2022/04/27 08:51:20;;;;;;;16.60;12.48;;;16.00;99.90;;;;;;5110820;28;20260;-52
2022/04/27 08:53:48;;;;;;;15.43;12.52;;;16.10;99.90;;;;;;5110123;28;20260;-52
2022/04/27 08:56:18;;;;;;;14.68;11.93;;;15.90;99.90;;;;;;5110835;28;20227;-53
2022/04/27 08:58:47;;;;;;;15.80;11.45;;;16.00;99.90;;;;;;5104058;28;20829;-52
2022/04/27 09:01:16;;;;;;;14.18;11.73;;;16.00;99.90;;;;;;5101943;28;20208;-52
2022/04/27 09:03:44;;;;;;;15.18;11.25;;;16.20;99.90;;;;;;5109585;28;20709;-51
2022/04/27 09:06:15;;;;;;;16.42;12.52;;;16.20;99.90;;;;;;5110961;28;20235;-52
2022/04/27 09:08:46;;;;;;;14.63;12.30;;;16.20;99.90;;;;;;5107138;28;20203;-52
2022/04/27 09:11:20;;;;;;;14.85;12.02;;;16.00;99.90;;;;;;5092420;28;20204;-51
2022/04/27 09:13:52;;;;;;;15.13;12.45;;;15.90;99.90;;;;;;5091246;28;20254;-51
2022/04/27 09:16:22;;;;;;;17.85;12.85;;;15.90;99.90;;;;;;5091857;28;20228;-52
2022/04/27 09:21:59;;;;;;;16.60;11.48;;;15.90;99.90;;;;;;5114129;28;20207;-51
2022/04/27 09:24:28;;;;;;;14.02;12.52;;;16.10;99.90;;;;;;5112880;28;20223;-52
2022/04/27 09:27:17;;;;;;;12.82;11.40;;;15.90;99.90;;;;;;5113832;28;20233;-52
2022/04/27 09:29:56;;;;;;;14.48;11.75;;;15.90;99.90;;;;;;5114056;28;20207;-53
2022/04/27 09:32:25;;;;;;;13.57;12.00;;;16.00;99.90;;;;;;5113272;27;20213;-52
2022/04/27 09:34:53;;;;;;;13.82;11.23;;;16.00;99.90;;;;;;5113911;28;20227;-51
2022/04/27 09:37:24;;;;;;;16.63;12.63;;;16.20;99.90;;;;;;5113934;27;20206;-51
2022/04/27 09:40:04;;;;;;;13.30;10.90;;;16.20;99.90;;;;;;5112978;28;20204;-53
2022/04/27 09:42:35;;;;;;;13.15;11.25;;;16.10;99.90;;;;;;5113570;28;20207;-52
2022/04/27 09:45:18;;;;;;;12.23;10.98;;;16.20;99.90;;;;;;5113166;28;20223;-51
2022/04/27 09:47:48;;;;;;;12.18;10.88;;;16.20;99.90;;;;;;5113804;28;20680;-52
2022/04/27 09:50:16;;;;;;;12.18;10.98;;;16.40;99.90;;;;;;5113484;28;20207;-53
2022/04/27 09:52:45;;;;;;;14.13;11.07;;;16.20;99.90;;;;;;5112834;28;20240;-52
2022/04/27 09:55:13;;;;;;;12.43;11.00;;;16.10;99.90;;;;;;5113399;28;20260;-52
2022/04/27 09:57:55;;;;;;;12.60;10.32;;;15.90;99.90;;;;;;5113772;28;20215;-51
2022/04/27 10:00:25;;;;;;;12.45;9.95;;;16.00;99.90;;;;;;5113196;28;20671;-52
2022/04/27 10:02:54;;;;;;;12.50;9.48;;;16.10;99.90;;;;;;5113141;28;20230;-52
2022/04/27 10:05:23;;;;;;;14.05;10.75;;;16.30;99.90;;;;;;5112899;28;20234;-52
2022/04/27 10:07:52;;;;;;;11.43;10.32;;;16.20;99.90;;;;;;5113058;28;20216;-52
2022/04/27 10:10:20;;;;;;;12.55;9.90;;;16.00;99.90;;;;;;5098541;28;20219;-51
2022/04/27 10:12:51;;;;;;;11.90;9.98;;;15.90;99.90;;;;;;5093227;28;20215;-53
2022/04/27 10:15:20;;;;;;;13.90;10.63;;;16.10;99.90;;;;;;5106217;28;20296;-53
2022/04/27 10:17:48;;;;;;;11.30;9.82;;;16.50;99.90;;;;;;5113115;28;20260;-53
2022/04/27 10:20:30;;;;;;;12.70;8.95;;;16.80;99.90;;;;;;5112755;28;20207;-51
2022/04/27 10:23:24;;;;;;;10.55;8.70;;;17.10;99.90;;;;;;5112215;28;20208;-52
2022/04/27 10:26:13;;;;;;;11.73;10.00;;;17.00;99.90;;;;;;5082885;28;20273;-51
2022/04/27 10:28:48;;;;;;;12.45;10.10;;;16.80;99.90;;;;;;5091856;28;20212;-52
2022/04/27 10:31:50;;;;;;;10.38;9.07;;;16.60;99.90;;;;;;5092696;28;20188;-52
2022/04/27 10:34:20;;;;;;;13.60;9.55;;;16.60;99.90;;;;;;5106306;28;20194;-52
2022/04/27 10:36:49;;;;;;;12.20;10.07;;;16.50;99.90;;;;;;5112893;28;20612;-52
2022/04/27 10:39:19;;;;;;;11.32;9.65;;;16.50;99.90;;;;;;5112579;28;20214;-52
2022/04/27 10:42:18;;;;;;;17.05;9.57;;;16.60;99.90;;;;;;5112299;28;20256;-52
2022/04/27 10:45:13;;;;;;;13.13;10.20;;;16.60;99.90;;;;;;5112220;28;20276;-53
2022/04/27 10:47:44;;;;;;;10.75;9.60;;;16.60;99.90;;;;;;5112466;28;20233;-53
2022/04/27 10:50:29;;;;;;;13.50;9.63;;;16.50;99.90;;;;;;5110950;28;20711;-52
2022/04/27 10:53:01;;;;;;;11.70;9.13;;;16.60;99.90;;;;;;5112003;27;20199;-52
2022/04/27 10:55:54;;;;;;;12.07;10.25;;;16.60;99.90;;;;;;5112527;28;20281;-52
2022/04/27 10:58:37;;;;;;;13.50;9.68;;;16.50;99.90;;;;;;5112812;28;20297;-52
2022/04/27 11:01:24;;;;;;;12.50;9.55;;;16.50;99.90;;;;;;5111851;28;20204;-52
2022/04/27 11:04:14;;;;;;;10.88;9.25;;;16.60;99.90;;;;;;5111492;28;20688;-52
2022/04/27 11:07:23;;;;;;;11.50;8.88;;;16.70;99.90;;;;;;5112474;28;20693;-52
2022/04/27 11:10:16;;;;;;;11.27;9.48;;;16.70;99.90;;;;;;5112131;28;20268;-51
2022/04/27 11:12:48;;;;;;;11.13;9.32;;;16.70;99.90;;;;;;5112232;28;20192;-52
2022/04/27 11:15:25;;;;;;;10.38;8.93;;;16.80;99.90;;;;;;5112153;28;20310;-52
2022/04/27 11:17:56;;;;;;;10.68;9.38;;;16.90;99.90;;;;;;5112257;28;20187;-52
2022/04/27 11:20:30;;;;;;;10.43;9.32;;;16.90;99.90;;;;;;5111989;28;20619;-52
2022/04/27 11:23:00;;;;;;;13.10;10.38;;;16.90;99.90;;;;;;5111454;28;20191;-52
2022/04/27 11:25:31;;;;;;;10.40;9.32;;;16.90;99.90;;;;;;5111724;28;20600;-52
2022/04/27 11:28:00;;;;;;;9.88;8.77;;;16.90;99.90;;;;;;5112390;28;20184;-52
2022/04/27 11:30:29;;;;;;;10.82;9.10;;;16.90;99.90;;;;;;5111796;28;20204;-52
2022/04/27 11:33:01;;;;;;;14.27;9.27;;;16.90;99.90;;;;;;5111256;28;20211;-52
2022/04/27 11:35:39;;;;;;;10.02;8.98;;;17.00;99.90;;;;;;5105317;28;20269;-52
2022/04/27 11:38:08;;;;;;;14.57;8.80;;;17.00;99.90;;;;;;5100935;28;20271;-53
2022/04/27 11:40:38;;;;;;;10.70;9.52;;;17.00;99.90;;;;;;5110417;28;20199;-52
2022/04/27 11:43:07;;;;;;;10.93;8.30;;;17.00;99.90;;;;;;5111012;28;20195;-52
2022/04/27 11:45:35;;;;;;;12.40;8.52;;;17.00;99.90;;;;;;5111336;28;20227;-53
2022/04/27 11:48:06;;;;;;;11.38;8.98;;;17.00;99.90;;;;;;5111542;28;20568;-52
2022/04/27 11:50:38;;;;;;;11.18;9.23;;;17.00;99.90;;;;;;5111351;28;20798;-52
2022/04/27 11:53:08;;;;;;;11.95;8.68;;;17.00;99.90;;;;;;5110687;28;20283;-52
2022/04/27 11:55:38;;;;;;;12.68;8.70;;;17.10;99.90;;;;;;5111561;28;20223;-53
2022/04/27 11:58:07;;;;;;;9.80;8.70;;;17.30;99.90;;;;;;5110877;28;20207;-52
2022/04/27 12:00:36;;;;;;;10.68;8.68;;;17.30;99.90;;;;;;5111350;28;20211;-53
2022/04/27 12:03:07;;;;;;;10.77;8.32;;;17.30;99.90;;;;;;5090675;28;20216;-52
2022/04/27 12:05:38;;;;;;;11.70;8.55;;;17.20;99.90;;;;;;5091009;28;20232;-52
2022/04/27 12:08:09;;;;;;;10.02;9.02;;;17.40;99.90;;;;;;5091285;28;20188;-52
2022/04/27 12:10:41;;;;;;;9.70;8.30;;;17.70;99.90;;;;;;5110807;28;20230;-52
2022/04/27 12:13:10;;;;;;;8.90;7.95;;;17.70;99.90;;;;;;5109457;28;20203;-52
2022/04/27 12:15:41;;;;;;;9.82;8.13;;;18.00;99.90;;;;;;5111247;28;20704;-52
2022/04/27 12:18:16;;;;;;;11.60;7.85;;;18.30;99.90;;;;;;5111369;28;20684;-52
2022/04/27 12:20:46;;;;;;;10.15;8.32;;;18.60;99.90;;;;;;5101211;28;20200;-52
2022/04/27 12:23:15;;;;;;;9.98;8.40;;;18.60;99.90;;;;;;5103396;28;20208;-52
2022/04/27 12:25:48;;;;;;;9.52;7.65;;;18.60;99.90;;;;;;5109724;28;20236;-51
2022/04/27 12:28:18;;;;;;;8.82;7.55;;;18.80;99.90;;;;;;5111330;28;20240;-52
2022/04/27 12:30:52;;;;;;;10.70;8.13;;;18.70;99.90;;;;;;5111108;28;20211;-52
2022/04/27 12:33:24;;;;;;;11.60;8.25;;;18.70;99.90;;;;;;5109678;28;20211;-52
2022/04/27 12:38:39;;;;;;;8.65;6.45;;;18.60;99.90;;;;;;5128312;28;20203;-52
2022/04/27 12:41:08;;;;;;;8.35;7.32;;;18.60;99.90;;;;;;5131866;27;20203;-52
2022/04/27 12:43:48;;;;;;;10.25;7.85;;;18.80;99.50;;;;;;5131273;28;20213;-52
2022/04/27 12:46:38;;;;;;;8.52;6.95;;;18.90;98.60;;;;;;5113456;27;20227;-52
2022/04/27 12:49:08;;;;;;;9.05;7.50;;;18.90;97.90;;;;;;5111017;28;20624;-52
2022/04/27 12:51:37;;;;;;;7.45;6.65;;;18.80;97.90;;;;;;5112151;28;20621;-52
2022/04/27 12:54:10;;;;;;;9.35;7.10;;;18.70;98.30;;;;;;5094288;28;20200;-52
2022/04/27 12:56:38;;;;;;;8.10;7.30;;;18.70;97.80;;;;;;5094491;28;20228;-52
2022/04/27 12:59:08;;;;;;;8.32;7.20;;;18.60;97.00;;;;;;5094313;28;20211;-52
2022/04/27 13:01:37;;;;;;;7.65;6.85;;;18.50;96.90;;;;;;5094565;28;20211;-52
2022/04/27 13:04:07;;;;;;;8.77;6.93;;;18.40;97.40;;;;;;5093804;28;20687;-52
2022/04/27 13:06:35;;;;;;;7.15;6.45;;;18.40;98.70;;;;;;5094346;28;20297;-52
2022/04/27 13:11:58;;;;;;;7.25;6.38;;;18.40;96.80;;;;;;5114001;28;20203;-52
2022/04/27 13:14:28;;;;;;;14.38;7.03;;;18.40;98.00;;;;;;5114437;28;20203;-52
2022/04/27 13:16:57;;;;;;;6.97;5.57;;;18.60;97.90;;;;;;5114157;28;20733;-52